sensor_id;sensor_type;location;lat;lon;timestamp;temperature;humidity
4840;DHT22;2434;48.486;7.964;2023-08-30T00:01:06;15.50;76.60
4840;DHT22;2434;48.486;7.964;2023-08-30T00:03:35;15.50;78.20
4840;DHT22;2434;48.486;7.964;2023-08-30T00:06:04;15.40;77.80
4840;DHT22;2434;48.486;7.964;2023-08-30T00:08:34;15.50;78.30
4840;DHT22;2434;48.486;7.964;2023-08-30T00:11:03;15.40;78.30
4840;DHT22;2434;48.486;7.964;2023-08-30T00:13:32;15.50;78.30
4840;DHT22;2434;48.486;7.964;2023-08-30T00:16:01;15.50;78.50
4840;DHT22;2434;48.486;7.964;2023-08-30T00:18:30;15.50;78.60
4840;DHT22;2434;48.486;7.964;2023-08-30T00:20:59;15.40;79.30
4840;DHT22;2434;48.486;7.964;2023-08-30T00:23:27;15.50;79.00
4840;DHT22;2434;48.486;7.964;2023-08-30T00:25:56;15.40;78.80
4840;DHT22;2434;48.486;7.964;2023-08-30T00:28:25;15.40;78.80
4840;DHT22;2434;48.486;7.964;2023-08-30T00:30:54;15.50;78.90
4840;DHT22;2434;48.486;7.964;2023-08-30T00:33:23;15.40;79.10
4840;DHT22;2434;48.486;7.964;2023-08-30T00:35:58;15.40;79.40
4840;DHT22;2434;48.486;7.964;2023-08-30T00:38:27;15.40;79.10
4840;DHT22;2434;48.486;7.964;2023-08-30T00:40:57;15.40;79.20
4840;DHT22;2434;48.486;7.964;2023-08-30T00:43:25;15.30;79.30
4840;DHT22;2434;48.486;7.964;2023-08-30T00:45:53;15.30;79.40
4840;DHT22;2434;48.486;7.964;2023-08-30T00:48:22;15.30;79.60
4840;DHT22;2434;48.486;7.964;2023-08-30T00:50:50;15.30;79.80
4840;DHT22;2434;48.486;7.964;2023-08-30T00:53:19;15.20;79.50
4840;DHT22;2434;48.486;7.964;2023-08-30T00:55:47;15.20;79.60
4840;DHT22;2434;48.486;7.964;2023-08-30T00:58:17;15.20;79.40
4840;DHT22;2434;48.486;7.964;2023-08-30T01:00:45;15.20;79.90
4840;DHT22;2434;48.486;7.964;2023-08-30T01:03:14;15.30;79.00
4840;DHT22;2434;48.486;7.964;2023-08-30T01:05:44;15.30;78.50
4840;DHT22;2434;48.486;7.964;2023-08-30T01:08:12;15.40;78.60
4840;DHT22;2434;48.486;7.964;2023-08-30T01:10:53;15.40;78.40
4840;DHT22;2434;48.486;7.964;2023-08-30T01:13:28;15.40;78.30
4840;DHT22;2434;48.486;7.964;2023-08-30T01:15:58;15.40;78.40
4840;DHT22;2434;48.486;7.964;2023-08-30T01:18:32;15.30;78.30
4840;DHT22;2434;48.486;7.964;2023-08-30T01:21:02;15.30;78.40
4840;DHT22;2434;48.486;7.964;2023-08-30T01:23:40;15.30;78.30
4840;DHT22;2434;48.486;7.964;2023-08-30T01:26:29;15.20;78.30
4840;DHT22;2434;48.486;7.964;2023-08-30T01:29:03;15.20;78.20
4840;DHT22;2434;48.486;7.964;2023-08-30T01:31:33;15.20;78.10
4840;DHT22;2434;48.486;7.964;2023-08-30T01:34:03;15.20;78.00
4840;DHT22;2434;48.486;7.964;2023-08-30T01:36:31;15.30;78.20
4840;DHT22;2434;48.486;7.964;2023-08-30T01:39:01;15.20;78.10
4840;DHT22;2434;48.486;7.964;2023-08-30T01:41:32;15.30;78.00
4840;DHT22;2434;48.486;7.964;2023-08-30T01:44:06;15.30;77.90
4840;DHT22;2434;48.486;7.964;2023-08-30T01:46:34;15.40;78.00
4840;DHT22;2434;48.486;7.964;2023-08-30T01:49:04;15.40;78.60
4840;DHT22;2434;48.486;7.964;2023-08-30T01:51:36;15.40;78.00
4840;DHT22;2434;48.486;7.964;2023-08-30T01:54:04;15.40;77.70
4840;DHT22;2434;48.486;7.964;2023-08-30T01:56:33;15.40;77.50
4840;DHT22;2434;48.486;7.964;2023-08-30T01:59:01;15.40;78.30
4840;DHT22;2434;48.486;7.964;2023-08-30T02:01:31;15.50;77.50
4840;DHT22;2434;48.486;7.964;2023-08-30T02:04:00;15.50;77.50
4840;DHT22;2434;48.486;7.964;2023-08-30T02:06:32;15.50;77.40
4840;DHT22;2434;48.486;7.964;2023-08-30T02:09:07;15.40;77.40
4840;DHT22;2434;48.486;7.964;2023-08-30T02:11:39;15.50;77.40
4840;DHT22;2434;48.486;7.964;2023-08-30T02:14:10;15.50;77.30
4840;DHT22;2434;48.486;7.964;2023-08-30T02:16:41;15.50;77.30
4840;DHT22;2434;48.486;7.964;2023-08-30T02:19:11;15.50;77.50
4840;DHT22;2434;48.486;7.964;2023-08-30T02:21:41;15.50;77.30
4840;DHT22;2434;48.486;7.964;2023-08-30T02:24:10;15.50;77.50
4840;DHT22;2434;48.486;7.964;2023-08-30T02:26:38;15.50;77.40
4840;DHT22;2434;48.486;7.964;2023-08-30T02:29:06;15.50;77.40
4840;DHT22;2434;48.486;7.964;2023-08-30T02:31:37;15.50;78.30
4840;DHT22;2434;48.486;7.964;2023-08-30T02:34:07;15.40;77.60
4840;DHT22;2434;48.486;7.964;2023-08-30T02:36:36;15.40;77.60
4840;DHT22;2434;48.486;7.964;2023-08-30T02:39:04;15.40;77.70
4840;DHT22;2434;48.486;7.964;2023-08-30T02:41:33;15.50;78.20
4840;DHT22;2434;48.486;7.964;2023-08-30T02:44:01;15.40;78.20
4840;DHT22;2434;48.486;7.964;2023-08-30T02:46:29;15.50;78.00
4840;DHT22;2434;48.486;7.964;2023-08-30T02:48:57;15.50;77.80
4840;DHT22;2434;48.486;7.964;2023-08-30T02:51:27;15.50;77.70
4840;DHT22;2434;48.486;7.964;2023-08-30T02:53:55;15.50;77.50
4840;DHT22;2434;48.486;7.964;2023-08-30T02:56:23;15.40;77.60
4840;DHT22;2434;48.486;7.964;2023-08-30T02:58:52;15.40;77.60
4840;DHT22;2434;48.486;7.964;2023-08-30T03:01:20;15.50;77.70
4840;DHT22;2434;48.486;7.964;2023-08-30T03:03:49;15.40;77.60
4840;DHT22;2434;48.486;7.964;2023-08-30T03:06:18;15.50;77.70
4840;DHT22;2434;48.486;7.964;2023-08-30T03:08:48;15.50;77.80
4840;DHT22;2434;48.486;7.964;2023-08-30T03:11:16;15.50;78.40
4840;DHT22;2434;48.486;7.964;2023-08-30T03:13:49;15.50;78.70
4840;DHT22;2434;48.486;7.964;2023-08-30T03:16:18;15.50;78.70
4840;DHT22;2434;48.486;7.964;2023-08-30T03:18:46;15.40;78.90
4840;DHT22;2434;48.486;7.964;2023-08-30T03:21:15;15.50;78.80
4840;DHT22;2434;48.486;7.964;2023-08-30T03:23:43;15.50;79.10
4840;DHT22;2434;48.486;7.964;2023-08-30T03:26:14;15.50;79.10
4840;DHT22;2434;48.486;7.964;2023-08-30T03:28:43;15.50;79.30
4840;DHT22;2434;48.486;7.964;2023-08-30T03:31:14;15.40;79.40
4840;DHT22;2434;48.486;7.964;2023-08-30T03:33:43;15.40;79.20
4840;DHT22;2434;48.486;7.964;2023-08-30T03:36:14;15.40;79.50
4840;DHT22;2434;48.486;7.964;2023-08-30T03:38:43;15.40;79.70
4840;DHT22;2434;48.486;7.964;2023-08-30T03:41:14;15.40;80.10
4840;DHT22;2434;48.486;7.964;2023-08-30T03:43:44;15.40;79.80
4840;DHT22;2434;48.486;7.964;2023-08-30T03:46:12;15.30;80.70
4840;DHT22;2434;48.486;7.964;2023-08-30T03:48:40;15.30;80.40
4840;DHT22;2434;48.486;7.964;2023-08-30T03:51:10;15.30;80.30
4840;DHT22;2434;48.486;7.964;2023-08-30T03:53:39;15.30;80.10
4840;DHT22;2434;48.486;7.964;2023-08-30T03:56:08;15.30;80.10
4840;DHT22;2434;48.486;7.964;2023-08-30T03:58:39;15.30;80.10
4840;DHT22;2434;48.486;7.964;2023-08-30T04:01:07;15.30;79.90
4840;DHT22;2434;48.486;7.964;2023-08-30T04:03:37;15.40;79.80
4840;DHT22;2434;48.486;7.964;2023-08-30T04:06:07;15.30;79.60
4840;DHT22;2434;48.486;7.964;2023-08-30T04:08:35;15.30;79.30
4840;DHT22;2434;48.486;7.964;2023-08-30T04:11:03;15.40;79.30
4840;DHT22;2434;48.486;7.964;2023-08-30T04:13:31;15.40;79.20
4840;DHT22;2434;48.486;7.964;2023-08-30T04:16:04;15.40;78.70
4840;DHT22;2434;48.486;7.964;2023-08-30T04:18:32;15.40;78.00
4840;DHT22;2434;48.486;7.964;2023-08-30T04:21:00;15.30;77.60
4840;DHT22;2434;48.486;7.964;2023-08-30T04:23:29;15.40;77.40
4840;DHT22;2434;48.486;7.964;2023-08-30T04:25:57;15.30;77.80
4840;DHT22;2434;48.486;7.964;2023-08-30T04:28:26;15.30;77.90
4840;DHT22;2434;48.486;7.964;2023-08-30T04:30:55;15.30;77.60
4840;DHT22;2434;48.486;7.964;2023-08-30T04:33:25;15.30;77.80
4840;DHT22;2434;48.486;7.964;2023-08-30T04:35:54;15.30;77.90
4840;DHT22;2434;48.486;7.964;2023-08-30T04:38:22;15.20;77.50
4840;DHT22;2434;48.486;7.964;2023-08-30T04:40:57;15.20;77.70
4840;DHT22;2434;48.486;7.964;2023-08-30T04:43:26;15.20;77.80
4840;DHT22;2434;48.486;7.964;2023-08-30T04:45:54;15.20;77.90
4840;DHT22;2434;48.486;7.964;2023-08-30T04:48:24;15.30;78.10
4840;DHT22;2434;48.486;7.964;2023-08-30T04:51:03;15.30;78.20
4840;DHT22;2434;48.486;7.964;2023-08-30T04:53:31;15.30;78.70
4840;DHT22;2434;48.486;7.964;2023-08-30T04:56:00;15.30;78.50
4840;DHT22;2434;48.486;7.964;2023-08-30T04:58:29;15.30;78.30
4840;DHT22;2434;48.486;7.964;2023-08-30T05:00:58;15.30;78.10
4840;DHT22;2434;48.486;7.964;2023-08-30T05:03:28;15.20;77.70
4840;DHT22;2434;48.486;7.964;2023-08-30T05:05:59;15.30;78.50
4840;DHT22;2434;48.486;7.964;2023-08-30T05:08:27;15.30;77.70
4840;DHT22;2434;48.486;7.964;2023-08-30T05:10:56;15.20;78.10
4840;DHT22;2434;48.486;7.964;2023-08-30T05:13:25;15.20;77.70
4840;DHT22;2434;48.486;7.964;2023-08-30T05:15:53;15.30;78.20
4840;DHT22;2434;48.486;7.964;2023-08-30T05:18:21;15.30;77.50
4840;DHT22;2434;48.486;7.964;2023-08-30T05:20:51;15.20;76.90
4840;DHT22;2434;48.486;7.964;2023-08-30T05:23:19;15.20;77.40
4840;DHT22;2434;48.486;7.964;2023-08-30T05:25:48;15.10;76.70
4840;DHT22;2434;48.486;7.964;2023-08-30T05:28:17;15.00;76.60
4840;DHT22;2434;48.486;7.964;2023-08-30T05:30:46;15.00;77.90
4840;DHT22;2434;48.486;7.964;2023-08-30T05:33:43;15.00;77.30
4840;DHT22;2434;48.486;7.964;2023-08-30T05:36:25;15.00;77.40
4840;DHT22;2434;48.486;7.964;2023-08-30T05:39:19;15.00;77.20
4840;DHT22;2434;48.486;7.964;2023-08-30T05:41:52;15.00;77.20
4840;DHT22;2434;48.486;7.964;2023-08-30T05:44:21;15.00;77.20
4840;DHT22;2434;48.486;7.964;2023-08-30T05:46:49;15.00;77.30
4840;DHT22;2434;48.486;7.964;2023-08-30T05:49:17;15.00;77.30
4840;DHT22;2434;48.486;7.964;2023-08-30T05:51:47;15.10;77.50
4840;DHT22;2434;48.486;7.964;2023-08-30T05:54:17;15.10;77.50
4840;DHT22;2434;48.486;7.964;2023-08-30T05:56:45;15.10;77.20
4840;DHT22;2434;48.486;7.964;2023-08-30T05:59:13;15.10;77.20
4840;DHT22;2434;48.486;7.964;2023-08-30T06:01:41;15.10;77.10
4840;DHT22;2434;48.486;7.964;2023-08-30T06:04:10;15.00;76.80
4840;DHT22;2434;48.486;7.964;2023-08-30T06:06:38;15.10;76.70
4840;DHT22;2434;48.486;7.964;2023-08-30T06:09:08;15.10;76.90
4840;DHT22;2434;48.486;7.964;2023-08-30T06:11:38;15.10;76.90
4840;DHT22;2434;48.486;7.964;2023-08-30T06:14:06;15.10;77.00
4840;DHT22;2434;48.486;7.964;2023-08-30T06:16:34;15.10;77.20
4840;DHT22;2434;48.486;7.964;2023-08-30T06:19:03;15.10;77.30
4840;DHT22;2434;48.486;7.964;2023-08-30T06:21:31;15.10;78.00
4840;DHT22;2434;48.486;7.964;2023-08-30T06:23:59;15.20;77.40
4840;DHT22;2434;48.486;7.964;2023-08-30T06:26:29;15.10;77.60
4840;DHT22;2434;48.486;7.964;2023-08-30T06:28:57;15.10;77.70
4840;DHT22;2434;48.486;7.964;2023-08-30T06:31:31;15.10;77.90
4840;DHT22;2434;48.486;7.964;2023-08-30T06:34:00;15.20;77.60
4840;DHT22;2434;48.486;7.964;2023-08-30T06:36:28;15.20;77.20
4840;DHT22;2434;48.486;7.964;2023-08-30T06:38:57;15.20;77.50
4840;DHT22;2434;48.486;7.964;2023-08-30T06:41:25;15.20;77.60
4840;DHT22;2434;48.486;7.964;2023-08-30T06:43:54;15.20;77.70
4840;DHT22;2434;48.486;7.964;2023-08-30T06:46:23;15.20;78.10
4840;DHT22;2434;48.486;7.964;2023-08-30T06:48:52;15.20;77.60
4840;DHT22;2434;48.486;7.964;2023-08-30T06:51:20;15.20;78.20
4840;DHT22;2434;48.486;7.964;2023-08-30T06:53:48;15.20;78.00
4840;DHT22;2434;48.486;7.964;2023-08-30T06:56:16;15.20;77.80
4840;DHT22;2434;48.486;7.964;2023-08-30T06:58:45;15.20;78.30
4840;DHT22;2434;48.486;7.964;2023-08-30T07:01:14;15.20;78.90
4840;DHT22;2434;48.486;7.964;2023-08-30T07:03:43;15.20;78.00
4840;DHT22;2434;48.486;7.964;2023-08-30T07:06:11;15.20;78.30
4840;DHT22;2434;48.486;7.964;2023-08-30T07:08:40;15.30;78.60
4840;DHT22;2434;48.486;7.964;2023-08-30T07:11:09;15.30;78.30
4840;DHT22;2434;48.486;7.964;2023-08-30T07:13:58;15.30;78.40
4840;DHT22;2434;48.486;7.964;2023-08-30T07:16:27;15.30;78.70
4840;DHT22;2434;48.486;7.964;2023-08-30T07:18:56;15.30;78.60
4840;DHT22;2434;48.486;7.964;2023-08-30T07:21:24;15.30;78.40
4840;DHT22;2434;48.486;7.964;2023-08-30T07:23:52;15.40;78.20
4840;DHT22;2434;48.486;7.964;2023-08-30T07:26:21;15.40;78.40
4840;DHT22;2434;48.486;7.964;2023-08-30T07:28:49;15.40;77.60
4840;DHT22;2434;48.486;7.964;2023-08-30T07:31:17;15.40;76.60
4840;DHT22;2434;48.486;7.964;2023-08-30T07:33:47;15.50;76.70
4840;DHT22;2434;48.486;7.964;2023-08-30T07:36:15;15.40;76.70
4840;DHT22;2434;48.486;7.964;2023-08-30T07:38:44;15.50;77.30
4840;DHT22;2434;48.486;7.964;2023-08-30T07:41:12;15.50;77.50
4840;DHT22;2434;48.486;7.964;2023-08-30T07:43:40;15.50;78.40
4840;DHT22;2434;48.486;7.964;2023-08-30T07:46:08;15.60;77.10
4840;DHT22;2434;48.486;7.964;2023-08-30T07:48:37;15.60;77.00
4840;DHT22;2434;48.486;7.964;2023-08-30T07:51:06;15.60;76.80
4840;DHT22;2434;48.486;7.964;2023-08-30T07:53:34;15.60;76.40
4840;DHT22;2434;48.486;7.964;2023-08-30T07:56:03;15.70;76.40
4840;DHT22;2434;48.486;7.964;2023-08-30T07:58:31;15.70;76.60
4840;DHT22;2434;48.486;7.964;2023-08-30T08:00:59;15.80;76.90
4840;DHT22;2434;48.486;7.964;2023-08-30T08:03:28;15.80;76.10
4840;DHT22;2434;48.486;7.964;2023-08-30T08:05:58;15.80;76.00
4840;DHT22;2434;48.486;7.964;2023-08-30T08:08:28;15.90;75.90
4840;DHT22;2434;48.486;7.964;2023-08-30T08:10:56;15.90;76.70
4840;DHT22;2434;48.486;7.964;2023-08-30T08:13:25;15.90;75.90
4840;DHT22;2434;48.486;7.964;2023-08-30T08:15:56;16.00;74.50
4840;DHT22;2434;48.486;7.964;2023-08-30T08:18:25;16.00;74.30
4840;DHT22;2434;48.486;7.964;2023-08-30T08:20:54;16.00;73.70
4840;DHT22;2434;48.486;7.964;2023-08-30T08:23:22;16.10;73.80
4840;DHT22;2434;48.486;7.964;2023-08-30T08:25:58;16.10;73.70
4840;DHT22;2434;48.486;7.964;2023-08-30T08:28:27;16.20;74.10
4840;DHT22;2434;48.486;7.964;2023-08-30T08:30:55;16.20;75.00
4840;DHT22;2434;48.486;7.964;2023-08-30T08:33:23;16.30;75.00
4840;DHT22;2434;48.486;7.964;2023-08-30T08:35:52;16.30;73.50
4840;DHT22;2434;48.486;7.964;2023-08-30T08:38:21;16.40;74.10
4840;DHT22;2434;48.486;7.964;2023-08-30T08:40:51;16.40;73.50
4840;DHT22;2434;48.486;7.964;2023-08-30T08:43:22;16.40;73.40
4840;DHT22;2434;48.486;7.964;2023-08-30T08:45:51;16.40;73.70
4840;DHT22;2434;48.486;7.964;2023-08-30T08:48:19;16.40;73.40
4840;DHT22;2434;48.486;7.964;2023-08-30T08:50:49;16.50;73.40
4840;DHT22;2434;48.486;7.964;2023-08-30T08:53:17;16.50;74.20
4840;DHT22;2434;48.486;7.964;2023-08-30T08:55:46;16.60;73.90
4840;DHT22;2434;48.486;7.964;2023-08-30T08:58:15;16.60;74.00
4840;DHT22;2434;48.486;7.964;2023-08-30T09:00:45;16.70;74.90
4840;DHT22;2434;48.486;7.964;2023-08-30T09:03:13;16.70;74.20
4840;DHT22;2434;48.486;7.964;2023-08-30T09:05:43;16.70;74.10
4840;DHT22;2434;48.486;7.964;2023-08-30T09:08:14;16.80;73.90
4840;DHT22;2434;48.486;7.964;2023-08-30T09:10:43;16.80;74.10
4840;DHT22;2434;48.486;7.964;2023-08-30T09:13:12;16.80;74.20
4840;DHT22;2434;48.486;7.964;2023-08-30T09:15:40;16.90;74.40
4840;DHT22;2434;48.486;7.964;2023-08-30T09:18:16;16.90;73.50
4840;DHT22;2434;48.486;7.964;2023-08-30T09:20:45;17.00;72.40
4840;DHT22;2434;48.486;7.964;2023-08-30T09:23:17;17.00;72.50
4840;DHT22;2434;48.486;7.964;2023-08-30T09:25:45;17.10;73.70
4840;DHT22;2434;48.486;7.964;2023-08-30T09:28:13;17.20;71.80
4840;DHT22;2434;48.486;7.964;2023-08-30T09:30:42;17.30;71.90
4840;DHT22;2434;48.486;7.964;2023-08-30T09:33:10;17.40;72.80
4840;DHT22;2434;48.486;7.964;2023-08-30T09:35:46;17.50;71.80
4840;DHT22;2434;48.486;7.964;2023-08-30T09:38:18;17.60;69.20
4840;DHT22;2434;48.486;7.964;2023-08-30T09:40:46;17.70;69.80
4840;DHT22;2434;48.486;7.964;2023-08-30T09:43:18;17.70;68.10
4840;DHT22;2434;48.486;7.964;2023-08-30T09:45:48;17.70;67.10
4840;DHT22;2434;48.486;7.964;2023-08-30T09:48:21;17.70;66.60
4840;DHT22;2434;48.486;7.964;2023-08-30T09:50:53;17.70;66.30
4840;DHT22;2434;48.486;7.964;2023-08-30T09:53:25;17.70;66.20
4840;DHT22;2434;48.486;7.964;2023-08-30T09:55:54;17.70;68.00
4840;DHT22;2434;48.486;7.964;2023-08-30T09:58:23;17.70;65.70
4840;DHT22;2434;48.486;7.964;2023-08-30T10:00:54;17.70;65.40
4840;DHT22;2434;48.486;7.964;2023-08-30T10:03:23;17.70;67.20
4840;DHT22;2434;48.486;7.964;2023-08-30T10:05:59;17.80;66.10
4840;DHT22;2434;48.486;7.964;2023-08-30T10:08:33;17.80;66.20
4840;DHT22;2434;48.486;7.964;2023-08-30T10:11:04;17.80;68.20
4840;DHT22;2434;48.486;7.964;2023-08-30T10:13:35;17.90;67.80
4840;DHT22;2434;48.486;7.964;2023-08-30T10:16:08;17.90;67.10
4840;DHT22;2434;48.486;7.964;2023-08-30T10:18:38;18.00;66.90
4840;DHT22;2434;48.486;7.964;2023-08-30T10:21:19;18.00;67.20
4840;DHT22;2434;48.486;7.964;2023-08-30T10:23:49;18.10;66.90
4840;DHT22;2434;48.486;7.964;2023-08-30T10:26:23;18.20;67.80
4840;DHT22;2434;48.486;7.964;2023-08-30T10:28:53;18.20;67.20
4840;DHT22;2434;48.486;7.964;2023-08-30T10:31:21;18.30;66.50
4840;DHT22;2434;48.486;7.964;2023-08-30T10:33:53;18.50;67.10
4840;DHT22;2434;48.486;7.964;2023-08-30T10:36:24;18.50;63.90
4840;DHT22;2434;48.486;7.964;2023-08-30T10:38:53;18.70;61.30
4840;DHT22;2434;48.486;7.964;2023-08-30T10:41:23;18.80;58.40
4840;DHT22;2434;48.486;7.964;2023-08-30T10:43:54;18.80;59.50
4840;DHT22;2434;48.486;7.964;2023-08-30T10:46:31;18.90;59.00
4840;DHT22;2434;48.486;7.964;2023-08-30T10:49:10;18.90;58.90
4840;DHT22;2434;48.486;7.964;2023-08-30T10:51:42;18.90;57.00
4840;DHT22;2434;48.486;7.964;2023-08-30T10:54:12;19.00;59.10
4840;DHT22;2434;48.486;7.964;2023-08-30T10:56:47;19.00;59.40
4840;DHT22;2434;48.486;7.964;2023-08-30T10:59:17;19.00;58.00
4840;DHT22;2434;48.486;7.964;2023-08-30T11:01:45;19.10;57.90
4840;DHT22;2434;48.486;7.964;2023-08-30T11:04:15;19.20;57.70
4840;DHT22;2434;48.486;7.964;2023-08-30T11:06:47;19.20;58.10
4840;DHT22;2434;48.486;7.964;2023-08-30T11:09:17;19.30;57.30
4840;DHT22;2434;48.486;7.964;2023-08-30T11:11:46;19.30;57.30
4840;DHT22;2434;48.486;7.964;2023-08-30T11:14:16;19.50;58.30
4840;DHT22;2434;48.486;7.964;2023-08-30T11:16:45;19.60;54.60
4840;DHT22;2434;48.486;7.964;2023-08-30T11:19:13;19.70;55.60
4840;DHT22;2434;48.486;7.964;2023-08-30T11:21:44;19.80;52.90
4840;DHT22;2434;48.486;7.964;2023-08-30T11:24:15;19.90;56.20
4840;DHT22;2434;48.486;7.964;2023-08-30T11:26:43;19.90;54.20
4840;DHT22;2434;48.486;7.964;2023-08-30T11:29:12;20.00;50.40
4840;DHT22;2434;48.486;7.964;2023-08-30T11:31:40;20.10;53.10
4840;DHT22;2434;48.486;7.964;2023-08-30T11:34:12;20.20;49.70
4840;DHT22;2434;48.486;7.964;2023-08-30T11:36:40;20.30;48.50
4840;DHT22;2434;48.486;7.964;2023-08-30T11:39:09;20.40;48.30
4840;DHT22;2434;48.486;7.964;2023-08-30T11:41:39;20.50;47.70
4840;DHT22;2434;48.486;7.964;2023-08-30T11:44:08;20.50;46.80
4840;DHT22;2434;48.486;7.964;2023-08-30T11:46:36;20.60;48.00
4840;DHT22;2434;48.486;7.964;2023-08-30T11:49:05;20.70;45.60
4840;DHT22;2434;48.486;7.964;2023-08-30T11:51:33;20.80;45.20
4840;DHT22;2434;48.486;7.964;2023-08-30T11:54:02;20.80;45.90
4840;DHT22;2434;48.486;7.964;2023-08-30T11:56:31;20.90;48.00
4840;DHT22;2434;48.486;7.964;2023-08-30T11:59:01;20.80;47.70
4840;DHT22;2434;48.486;7.964;2023-08-30T12:01:29;20.70;48.20
4840;DHT22;2434;48.486;7.964;2023-08-30T12:03:58;20.70;48.30
4840;DHT22;2434;48.486;7.964;2023-08-30T12:06:26;20.70;50.70
4840;DHT22;2434;48.486;7.964;2023-08-30T12:08:58;20.60;49.10
4840;DHT22;2434;48.486;7.964;2023-08-30T12:11:26;20.50;46.90
4840;DHT22;2434;48.486;7.964;2023-08-30T12:14:02;20.50;48.10
4840;DHT22;2434;48.486;7.964;2023-08-30T12:16:32;20.50;48.70
4840;DHT22;2434;48.486;7.964;2023-08-30T12:19:09;20.50;50.90
4840;DHT22;2434;48.486;7.964;2023-08-30T12:21:40;20.50;50.00
4840;DHT22;2434;48.486;7.964;2023-08-30T12:24:09;20.60;50.30
4840;DHT22;2434;48.486;7.964;2023-08-30T12:26:37;20.50;48.40
4840;DHT22;2434;48.486;7.964;2023-08-30T12:29:07;20.50;48.30
4840;DHT22;2434;48.486;7.964;2023-08-30T12:31:35;20.50;47.60
4840;DHT22;2434;48.486;7.964;2023-08-30T12:34:04;20.40;50.40
4840;DHT22;2434;48.486;7.964;2023-08-30T12:36:32;20.40;49.20
4840;DHT22;2434;48.486;7.964;2023-08-30T12:39:01;20.40;48.20
4840;DHT22;2434;48.486;7.964;2023-08-30T12:41:31;20.30;47.70
4840;DHT22;2434;48.486;7.964;2023-08-30T12:44:00;20.40;49.50
4840;DHT22;2434;48.486;7.964;2023-08-30T12:46:30;20.50;51.10
4840;DHT22;2434;48.486;7.964;2023-08-30T12:48:58;20.50;48.50
4840;DHT22;2434;48.486;7.964;2023-08-30T12:51:26;20.70;47.60
4840;DHT22;2434;48.486;7.964;2023-08-30T12:53:56;20.70;45.20
4840;DHT22;2434;48.486;7.964;2023-08-30T12:56:24;20.80;45.10
4840;DHT22;2434;48.486;7.964;2023-08-30T12:58:53;20.90;44.30
4840;DHT22;2434;48.486;7.964;2023-08-30T13:01:21;21.10;41.90
4840;DHT22;2434;48.486;7.964;2023-08-30T13:03:53;21.10;42.00
4840;DHT22;2434;48.486;7.964;2023-08-30T13:06:21;21.10;42.10
4840;DHT22;2434;48.486;7.964;2023-08-30T13:08:49;21.00;42.70
4840;DHT22;2434;48.486;7.964;2023-08-30T13:11:17;21.10;42.40
4840;DHT22;2434;48.486;7.964;2023-08-30T13:13:46;21.10;42.00
4840;DHT22;2434;48.486;7.964;2023-08-30T13:16:14;21.20;42.40
4840;DHT22;2434;48.486;7.964;2023-08-30T13:18:42;21.20;41.40
4840;DHT22;2434;48.486;7.964;2023-08-30T13:21:12;21.20;43.30
4840;DHT22;2434;48.486;7.964;2023-08-30T13:23:43;21.20;44.10
4840;DHT22;2434;48.486;7.964;2023-08-30T13:26:11;21.30;42.10
4840;DHT22;2434;48.486;7.964;2023-08-30T13:28:39;21.40;42.20
4840;DHT22;2434;48.486;7.964;2023-08-30T13:31:07;21.50;43.60
4840;DHT22;2434;48.486;7.964;2023-08-30T13:33:36;21.50;42.20
4840;DHT22;2434;48.486;7.964;2023-08-30T13:36:04;21.50;41.30
4840;DHT22;2434;48.486;7.964;2023-08-30T13:38:34;21.40;41.70
4840;DHT22;2434;48.486;7.964;2023-08-30T13:41:02;21.40;40.00
4840;DHT22;2434;48.486;7.964;2023-08-30T13:43:32;21.50;42.80
4840;DHT22;2434;48.486;7.964;2023-08-30T13:46:01;21.50;42.50
4840;DHT22;2434;48.486;7.964;2023-08-30T13:48:29;21.50;41.80
4840;DHT22;2434;48.486;7.964;2023-08-30T13:50:57;21.50;40.80
4840;DHT22;2434;48.486;7.964;2023-08-30T13:53:26;21.60;42.40
4840;DHT22;2434;48.486;7.964;2023-08-30T13:55:56;21.60;42.80
4840;DHT22;2434;48.486;7.964;2023-08-30T13:58:25;21.70;41.90
4840;DHT22;2434;48.486;7.964;2023-08-30T14:00:53;21.70;40.80
4840;DHT22;2434;48.486;7.964;2023-08-30T14:03:21;21.80;40.00
4840;DHT22;2434;48.486;7.964;2023-08-30T14:05:49;22.00;40.10
4840;DHT22;2434;48.486;7.964;2023-08-30T14:08:17;22.00;40.00
4840;DHT22;2434;48.486;7.964;2023-08-30T14:10:47;22.00;39.20
4840;DHT22;2434;48.486;7.964;2023-08-30T14:13:16;22.10;39.60
4840;DHT22;2434;48.486;7.964;2023-08-30T14:15:45;22.20;37.50
4840;DHT22;2434;48.486;7.964;2023-08-30T14:18:13;22.30;38.50
4840;DHT22;2434;48.486;7.964;2023-08-30T14:20:42;22.20;39.70
4840;DHT22;2434;48.486;7.964;2023-08-30T14:23:10;22.30;38.90
4840;DHT22;2434;48.486;7.964;2023-08-30T14:25:41;22.30;37.90
4840;DHT22;2434;48.486;7.964;2023-08-30T14:28:09;22.40;39.30
4840;DHT22;2434;48.486;7.964;2023-08-30T14:30:39;22.50;36.80
4840;DHT22;2434;48.486;7.964;2023-08-30T14:33:07;22.50;37.30
4840;DHT22;2434;48.486;7.964;2023-08-30T14:35:41;22.50;36.80
4840;DHT22;2434;48.486;7.964;2023-08-30T14:38:09;22.50;35.30
4840;DHT22;2434;48.486;7.964;2023-08-30T14:40:38;22.50;37.00
4840;DHT22;2434;48.486;7.964;2023-08-30T14:43:06;22.50;35.50
4840;DHT22;2434;48.486;7.964;2023-08-30T14:45:34;22.50;36.50
4840;DHT22;2434;48.486;7.964;2023-08-30T14:48:05;22.60;36.60
4840;DHT22;2434;48.486;7.964;2023-08-30T14:50:36;22.70;34.00
4840;DHT22;2434;48.486;7.964;2023-08-30T14:53:04;22.70;34.50
4840;DHT22;2434;48.486;7.964;2023-08-30T14:55:33;22.70;33.30
4840;DHT22;2434;48.486;7.964;2023-08-30T14:58:01;22.70;33.40
4840;DHT22;2434;48.486;7.964;2023-08-30T15:00:30;22.70;33.70
4840;DHT22;2434;48.486;7.964;2023-08-30T15:02:58;22.70;35.70
4840;DHT22;2434;48.486;7.964;2023-08-30T15:05:28;22.70;35.10
4840;DHT22;2434;48.486;7.964;2023-08-30T15:07:56;22.70;33.70
4840;DHT22;2434;48.486;7.964;2023-08-30T15:10:24;22.70;32.80
4840;DHT22;2434;48.486;7.964;2023-08-30T15:12:53;22.70;34.00
4840;DHT22;2434;48.486;7.964;2023-08-30T15:15:21;22.70;34.30
4840;DHT22;2434;48.486;7.964;2023-08-30T15:17:49;22.70;34.80
4840;DHT22;2434;48.486;7.964;2023-08-30T15:20:18;22.70;35.00
4840;DHT22;2434;48.486;7.964;2023-08-30T15:22:47;22.70;33.50
4840;DHT22;2434;48.486;7.964;2023-08-30T15:25:16;22.70;32.70
4840;DHT22;2434;48.486;7.964;2023-08-30T15:27:44;22.70;31.90
4840;DHT22;2434;48.486;7.964;2023-08-30T15:30:13;22.60;33.70
4840;DHT22;2434;48.486;7.964;2023-08-30T15:32:41;22.60;32.80
4840;DHT22;2434;48.486;7.964;2023-08-30T15:35:10;22.60;34.40
4840;DHT22;2434;48.486;7.964;2023-08-30T15:37:38;22.50;33.00
4840;DHT22;2434;48.486;7.964;2023-08-30T15:40:09;22.50;33.50
4840;DHT22;2434;48.486;7.964;2023-08-30T15:42:37;22.50;33.30
4840;DHT22;2434;48.486;7.964;2023-08-30T15:45:06;22.50;34.30
4840;DHT22;2434;48.486;7.964;2023-08-30T15:47:35;22.40;33.00
4840;DHT22;2434;48.486;7.964;2023-08-30T15:50:04;22.40;34.20
4840;DHT22;2434;48.486;7.964;2023-08-30T15:52:33;22.40;34.20
4840;DHT22;2434;48.486;7.964;2023-08-30T15:55:01;22.40;34.80
4840;DHT22;2434;48.486;7.964;2023-08-30T15:57:31;22.40;34.40
4840;DHT22;2434;48.486;7.964;2023-08-30T15:59:59;22.40;33.70
4840;DHT22;2434;48.486;7.964;2023-08-30T16:02:32;22.30;33.60
4840;DHT22;2434;48.486;7.964;2023-08-30T16:05:00;22.30;34.20
4840;DHT22;2434;48.486;7.964;2023-08-30T16:07:29;22.30;34.70
4840;DHT22;2434;48.486;7.964;2023-08-30T16:09:57;22.20;34.70
4840;DHT22;2434;48.486;7.964;2023-08-30T16:12:28;22.20;34.40
4840;DHT22;2434;48.486;7.964;2023-08-30T16:14:58;22.20;35.30
4840;DHT22;2434;48.486;7.964;2023-08-30T16:17:26;22.10;34.90